Time;durP1;ratioP1;P1;durP2;ratioP2;P2;SDS_P1;SDS_P2;PMS_P1;PMS_P2;Temp;Humidity;BMP_temperature;BMP_pressure;BME280_temperature;BME280_humidity;BME280_pressure;Samples;Min_cycle;Max_cycle;Signal;HPM_P1;HPM_P2
2021/10/29 00:02:24;;;;;;;16.30;12.07;;;12.70;58.50;;;;;;5047932;28;20794;-51
2021/10/29 00:04:51;;;;;;;15.53;11.83;;;12.30;59.50;;;;;;5053959;28;20443;-47
2021/10/29 00:07:18;;;;;;;14.07;10.00;;;12.40;59.40;;;;;;5048573;28;20475;-52
2021/10/29 00:09:44;;;;;;;12.83;10.10;;;12.50;58.70;;;;;;5050856;28;20431;-48
2021/10/29 00:12:11;;;;;;;12.47;11.03;;;12.60;58.20;;;;;;5052410;28;20802;-51
2021/10/29 00:14:37;;;;;;;13.37;10.20;;;12.60;57.70;;;;;;5049487;28;20791;-47
2021/10/29 00:17:03;;;;;;;13.30;10.13;;;12.70;57.40;;;;;;5051724;28;20508;-52
2021/10/29 00:19:29;;;;;;;15.13;11.33;;;12.60;57.60;;;;;;5056038;28;20232;-51
2021/10/29 00:21:55;;;;;;;12.23;10.77;;;12.60;57.90;;;;;;5047960;28;20445;-49
2021/10/29 00:24:20;;;;;;;13.63;11.87;;;12.60;57.90;;;;;;5048327;28;20250;-48
2021/10/29 00:26:47;;;;;;;14.60;11.67;;;12.70;57.80;;;;;;5046352;28;20715;-51
2021/10/29 00:29:13;;;;;;;17.53;12.27;;;12.70;57.60;;;;;;5050772;28;20188;-50
2021/10/29 00:31:39;;;;;;;19.20;12.00;;;12.70;57.60;;;;;;5045145;28;20459;-48
2021/10/29 00:34:05;;;;;;;16.10;12.00;;;12.50;57.70;;;;;;5051969;28;20927;-49
2021/10/29 00:36:30;;;;;;;17.60;12.20;;;12.50;58.20;;;;;;5048777;28;20542;-50
2021/10/29 00:38:56;;;;;;;15.80;12.20;;;12.40;58.40;;;;;;5050805;28;20219;-52
2021/10/29 00:41:22;;;;;;;16.50;11.93;;;12.40;58.30;;;;;;5048032;28;20208;-47
2021/10/29 00:43:47;;;;;;;13.70;11.63;;;12.50;58.30;;;;;;5049776;28;20189;-49
2021/10/29 00:46:13;;;;;;;16.80;11.90;;;12.50;57.90;;;;;;5049237;28;20228;-51
2021/10/29 00:48:39;;;;;;;15.43;11.37;;;12.50;57.60;;;;;;5045510;28;20306;-51
2021/10/29 00:51:05;;;;;;;13.97;12.00;;;12.50;57.70;;;;;;5050458;28;20254;-49
2021/10/29 00:53:31;;;;;;;14.33;12.40;;;12.30;58.20;;;;;;5047805;28;20204;-48
2021/10/29 00:55:58;;;;;;;16.30;12.30;;;12.30;58.30;;;;;;5052099;28;20442;-49
2021/10/29 00:58:24;;;;;;;16.57;13.03;;;12.40;57.90;;;;;;5050719;28;20463;-48
2021/10/29 01:00:49;;;;;;;15.27;13.47;;;12.50;57.60;;;;;;5043637;28;20431;-47
2021/10/29 01:03:16;;;;;;;16.70;11.37;;;12.50;57.50;;;;;;5052470;28;20433;-51
2021/10/29 01:05:42;;;;;;;16.10;11.47;;;12.40;57.80;;;;;;5044150;28;20224;-49
2021/10/29 01:08:10;;;;;;;16.90;10.90;;;12.40;58.10;;;;;;5041620;28;20907;-47
2021/10/29 01:10:36;;;;;;;18.00;11.57;;;12.40;57.80;;;;;;5050852;28;20493;-47
2021/10/29 01:13:02;;;;;;;17.60;12.50;;;12.40;57.60;;;;;;5045393;28;20491;-48
2021/10/29 01:15:28;;;;;;;15.03;11.47;;;12.50;57.70;;;;;;5040368;28;20862;-49
2021/10/29 01:17:54;;;;;;;17.30;12.30;;;12.50;57.50;;;;;;5057974;28;20445;-50
2021/10/29 01:20:24;;;;;;;20.27;13.90;;;12.50;57.30;;;;;;5034402;28;20240;-47
2021/10/29 01:22:51;;;;;;;22.00;13.60;;;12.40;57.10;;;;;;5040346;28;20447;-51
2021/10/29 01:25:17;;;;;;;16.77;11.87;;;12.40;57.10;;;;;;5043196;28;20439;-49
2021/10/29 01:27:43;;;;;;;15.53;11.90;;;12.30;56.90;;;;;;5051945;28;20484;-47
2021/10/29 01:30:10;;;;;;;15.13;11.33;;;12.40;56.70;;;;;;5055352;28;20432;-47
2021/10/29 01:32:36;;;;;;;12.70;10.50;;;12.40;56.70;;;;;;5047067;28;20188;-47
2021/10/29 01:35:02;;;;;;;13.87;11.37;;;12.40;56.50;;;;;;5050930;28;20485;-47
2021/10/29 01:37:29;;;;;;;14.03;10.97;;;12.30;56.40;;;;;;5048185;28;20446;-48
2021/10/29 01:39:55;;;;;;;12.47;10.67;;;12.30;56.50;;;;;;5045941;28;20447;-50
2021/10/29 01:42:21;;;;;;;15.30;11.27;;;12.30;56.30;;;;;;5052094;28;20690;-47
2021/10/29 01:44:47;;;;;;;12.57;10.80;;;12.30;56.30;;;;;;5054033;28;20270;-50
2021/10/29 01:47:13;;;;;;;16.47;11.90;;;12.20;56.30;;;;;;5053432;28;20220;-48
2021/10/29 01:49:40;;;;;;;11.43;9.90;;;12.20;56.30;;;;;;5048883;28;20461;-51
2021/10/29 01:52:08;;;;;;;15.73;11.50;;;12.20;56.30;;;;;;5054002;28;20470;-48
2021/10/29 01:54:34;;;;;;;11.13;9.60;;;12.20;56.20;;;;;;5046756;28;20502;-52
2021/10/29 01:57:00;;;;;;;13.33;10.43;;;12.10;56.10;;;;;;5042382;28;20455;-47
2021/10/29 01:59:26;;;;;;;14.47;10.23;;;12.10;56.30;;;;;;5042406;28;20935;-50
2021/10/29 02:01:54;;;;;;;11.37;9.70;;;12.10;56.10;;;;;;5037363;28;20251;-47
2021/10/29 02:04:21;;;;;;;12.27;10.27;;;11.70;56.00;;;;;;5034601;28;20486;-47
2021/10/29 02:06:47;;;;;;;10.63;9.53;;;11.70;55.90;;;;;;5040716;28;21076;-47
2021/10/29 02:09:13;;;;;;;12.87;9.83;;;11.80;55.30;;;;;;5074020;28;20436;-48
2021/10/29 02:11:39;;;;;;;13.50;10.80;;;11.80;55.00;;;;;;5039797;28;20193;-48
2021/10/29 02:14:05;;;;;;;13.57;10.80;;;11.80;55.20;;;;;;5039002;28;20607;-48
2021/10/29 02:16:31;;;;;;;12.40;10.80;;;11.80;55.20;;;;;;5043099;28;20436;-51
2021/10/29 02:18:57;;;;;;;12.10;9.57;;;11.80;55.40;;;;;;5046845;28;20236;-51
2021/10/29 02:21:23;;;;;;;16.37;10.63;;;11.70;55.40;;;;;;5044341;28;20201;-51
2021/10/29 02:23:48;;;;;;;13.93;10.10;;;11.70;55.40;;;;;;5038214;28;20911;-52
2021/10/29 02:26:14;;;;;;;13.23;10.90;;;11.70;55.70;;;;;;5032031;28;20225;-52
2021/10/29 02:28:40;;;;;;;13.47;10.83;;;11.70;55.90;;;;;;5043987;28;20195;-52
2021/10/29 02:31:06;;;;;;;12.70;11.37;;;11.70;56.00;;;;;;5041800;28;20444;-49
2021/10/29 02:33:31;;;;;;;19.10;11.30;;;11.70;56.10;;;;;;5054198;28;20253;-50
2021/10/29 02:35:57;;;;;;;16.73;10.33;;;11.60;56.00;;;;;;5049184;28;20184;-50
2021/10/29 02:38:22;;;;;;;13.43;10.40;;;11.70;55.90;;;;;;5055411;28;20663;-51
2021/10/29 02:40:48;;;;;;;12.07;9.83;;;11.70;55.70;;;;;;5052648;28;20205;-49
2021/10/29 02:43:14;;;;;;;13.30;11.03;;;11.60;55.40;;;;;;5052990;28;20213;-49
2021/10/29 02:45:40;;;;;;;12.60;11.03;;;11.60;55.30;;;;;;5052043;28;20215;-48
2021/10/29 02:48:06;;;;;;;12.40;10.20;;;11.60;55.50;;;;;;5046005;28;20502;-50
2021/10/29 02:50:32;;;;;;;10.77;9.60;;;11.50;55.90;;;;;;5050959;28;20219;-52
2021/10/29 02:52:57;;;;;;;12.87;9.73;;;11.40;56.00;;;;;;5046631;28;20922;-47
2021/10/29 02:55:23;;;;;;;13.43;9.83;;;11.40;56.20;;;;;;5049816;28;20438;-50
2021/10/29 02:57:49;;;;;;;12.07;9.50;;;11.40;55.70;;;;;;5049349;28;20588;-51
2021/10/29 03:00:16;;;;;;;13.60;10.23;;;11.30;55.30;;;;;;5035690;28;20786;-48
2021/10/29 03:02:44;;;;;;;12.33;10.67;;;11.30;55.20;;;;;;5051971;28;20192;-51
2021/10/29 03:05:10;;;;;;;12.13;9.70;;;11.30;55.00;;;;;;5051953;28;20468;-47
2021/10/29 03:07:36;;;;;;;14.20;11.30;;;11.30;55.10;;;;;;5053325;28;20491;-52
2021/10/29 03:10:03;;;;;;;14.30;11.03;;;11.30;55.10;;;;;;5047117;28;20473;-51
2021/10/29 03:12:29;;;;;;;13.40;10.57;;;11.30;55.20;;;;;;5042908;28;20454;-49
2021/10/29 03:14:55;;;;;;;14.73;12.23;;;11.30;55.90;;;;;;5054119;28;20446;-49
2021/10/29 03:17:20;;;;;;;16.80;12.93;;;11.20;55.50;;;;;;5053100;28;20193;-51
2021/10/29 03:19:46;;;;;;;15.63;12.10;;;11.20;55.70;;;;;;5055216;28;20304;-47
2021/10/29 03:22:12;;;;;;;15.17;11.23;;;11.20;55.80;;;;;;5052289;28;20184;-48
2021/10/29 03:24:37;;;;;;;13.03;10.33;;;11.20;55.10;;;;;;5054685;28;20269;-49
2021/10/29 03:27:03;;;;;;;14.93;10.93;;;11.20;54.30;;;;;;5049658;28;20255;-50
2021/10/29 03:29:29;;;;;;;12.93;10.30;;;11.20;53.90;;;;;;5051150;28;20283;-51
2021/10/29 03:31:54;;;;;;;12.63;9.90;;;11.10;54.00;;;;;;5052005;28;20192;-49
2021/10/29 03:34:20;;;;;;;13.30;10.83;;;11.10;54.30;;;;;;5049938;28;20793;-47
2021/10/29 03:36:46;;;;;;;15.07;11.10;;;11.00;54.60;;;;;;5042153;28;20348;-48
2021/10/29 03:39:38;;;;;;;16.07;10.87;;;11.00;54.70;;;;;;5046527;28;20207;-52
2021/10/29 03:41:59;;;;;;;33.63;12.77;;;11.00;54.90;;;;;;5054468;28;20481;-48
2021/10/29 03:44:43;;;;;;;18.20;12.17;;;11.00;55.50;;;;;;5044006;28;20448;-48
2021/10/29 03:47:09;;;;;;;14.87;11.40;;;10.70;56.30;;;;;;5042681;28;20874;-52
2021/10/29 03:49:41;;;;;;;17.40;11.87;;;10.60;57.00;;;;;;5047948;28;20446;-48
2021/10/29 03:52:19;;;;;;;17.97;11.93;;;10.70;57.10;;;;;;5051696;28;20434;-51
2021/10/29 03:54:50;;;;;;;14.93;10.97;;;10.70;57.10;;;;;;5049949;28;20478;-51
2021/10/29 03:57:26;;;;;;;16.80;11.27;;;10.70;56.80;;;;;;5044251;28;20519;-48
2021/10/29 03:59:53;;;;;;;15.80;12.67;;;10.70;56.60;;;;;;5040465;28;20443;-48
2021/10/29 04:02:19;;;;;;;29.30;11.73;;;10.70;56.60;;;;;;5047819;28;20440;-47
2021/10/29 04:04:45;;;;;;;26.80;12.53;;;10.70;56.80;;;;;;5043307;28;20436;-48
2021/10/29 04:07:11;;;;;;;27.63;12.93;;;10.60;57.20;;;;;;5047753;28;20577;-47
2021/10/29 04:09:37;;;;;;;15.50;11.97;;;10.60;57.30;;;;;;5045729;28;20436;-47
2021/10/29 04:12:03;;;;;;;18.63;12.67;;;10.50;57.50;;;;;;5045887;28;20441;-51
2021/10/29 04:14:29;;;;;;;19.60;12.37;;;10.50;57.80;;;;;;5035287;28;20805;-48
2021/10/29 04:16:55;;;;;;;15.83;12.00;;;10.60;58.30;;;;;;5042416;28;20438;-47
2021/10/29 04:19:21;;;;;;;21.23;11.90;;;10.60;57.70;;;;;;5043599;28;20244;-50
2021/10/29 04:21:46;;;;;;;33.07;13.40;;;10.60;57.60;;;;;;5046022;28;20918;-49
2021/10/29 04:24:12;;;;;;;23.73;12.30;;;10.60;57.50;;;;;;5052178;28;20271;-47
2021/10/29 04:26:39;;;;;;;17.03;12.00;;;10.60;57.60;;;;;;5048403;28;20278;-46
2021/10/29 04:29:15;;;;;;;22.23;12.40;;;10.60;57.80;;;;;;5047666;28;20201;-48
2021/10/29 04:31:49;;;;;;;18.67;11.37;;;10.60;57.90;;;;;;5043460;28;20847;-49
2021/10/29 04:34:21;;;;;;;18.10;12.87;;;10.50;57.90;;;;;;5036215;28;20436;-47
2021/10/29 04:36:47;;;;;;;18.27;12.77;;;10.50;57.90;;;;;;5042988;28;20436;-47
2021/10/29 04:39:14;;;;;;;18.67;13.03;;;10.50;57.70;;;;;;5047596;28;20433;-47
2021/10/29 04:41:40;;;;;;;20.63;13.23;;;10.60;57.70;;;;;;5045540;28;20493;-48
2021/10/29 04:44:07;;;;;;;17.63;11.20;;;10.60;57.30;;;;;;5041822;28;21011;-49
2021/10/29 04:46:33;;;;;;;16.63;12.67;;;10.60;57.00;;;;;;5041526;28;20483;-48
2021/10/29 04:48:58;;;;;;;14.00;11.60;;;10.60;57.00;;;;;;5044273;28;20428;-48
2021/10/29 04:51:24;;;;;;;16.53;11.50;;;10.60;57.10;;;;;;5042146;28;20458;-47
2021/10/29 04:53:50;;;;;;;16.27;11.30;;;10.50;57.10;;;;;;5048629;28;20560;-47
2021/10/29 04:56:16;;;;;;;15.40;12.30;;;10.50;57.00;;;;;;5049156;28;20950;-51
2021/10/29 04:58:41;;;;;;;14.60;12.00;;;10.40;57.00;;;;;;5049755;28;20562;-47
2021/10/29 05:01:07;;;;;;;19.80;13.07;;;10.40;57.30;;;;;;5049750;28;20188;-47
2021/10/29 05:03:33;;;;;;;20.60;13.37;;;10.10;57.50;;;;;;5044391;28;20275;-47
2021/10/29 05:05:58;;;;;;;20.23;12.80;;;10.00;58.30;;;;;;5039799;28;20220;-47
2021/10/29 05:08:24;;;;;;;19.20;12.90;;;10.10;58.40;;;;;;5046754;28;20431;-48
2021/10/29 05:10:50;;;;;;;19.00;12.03;;;10.10;57.90;;;;;;5037106;28;21201;-47
2021/10/29 05:13:16;;;;;;;15.37;11.70;;;10.10;58.10;;;;;;5045518;28;20196;-47
2021/10/29 05:15:42;;;;;;;16.37;12.03;;;10.20;59.00;;;;;;5045386;28;20201;-48
2021/10/29 05:18:13;;;;;;;19.80;13.67;;;10.50;60.40;;;;;;5043074;28;20523;-46
2021/10/29 05:20:39;;;;;;;18.63;12.40;;;10.80;60.30;;;;;;5047269;28;20282;-47
2021/10/29 05:23:04;;;;;;;15.03;10.63;;;11.00;59.90;;;;;;5044571;28;21150;-48
2021/10/29 05:25:30;;;;;;;15.37;11.30;;;11.20;59.70;;;;;;5050701;28;20197;-46
2021/10/29 05:27:56;;;;;;;14.47;11.13;;;11.30;59.20;;;;;;5045938;28;20201;-47
2021/10/29 05:30:21;;;;;;;13.27;11.33;;;11.30;58.10;;;;;;5043702;28;20189;-48
2021/10/29 05:32:47;;;;;;;16.63;11.43;;;11.40;58.20;;;;;;5046714;28;20256;-46
2021/10/29 05:35:12;;;;;;;13.57;10.90;;;11.50;57.30;;;;;;5041982;28;20188;-49
2021/10/29 05:37:38;;;;;;;13.50;10.90;;;11.60;56.80;;;;;;5041047;28;20620;-50
2021/10/29 05:40:05;;;;;;;15.37;11.77;;;11.70;55.90;;;;;;5040290;28;20204;-51
2021/10/29 05:42:33;;;;;;;13.90;10.90;;;11.70;55.70;;;;;;5045294;28;20519;-49
2021/10/29 05:45:00;;;;;;;13.23;10.47;;;11.70;54.90;;;;;;5041635;28;20470;-51
2021/10/29 05:47:26;;;;;;;14.00;10.87;;;11.60;54.40;;;;;;5044867;28;20486;-49
2021/10/29 05:50:58;;;;;;;15.47;10.90;;;11.60;55.30;;;;;;5041526;28;20431;-48
2021/10/29 05:55:56;;;;;;;13.90;10.47;;;11.60;55.20;;;;;;5039602;28;20791;-50
2021/10/29 05:58:21;;;;;;;11.60;10.40;;;11.60;55.50;;;;;;5033482;28;20447;-50
2021/10/29 06:00:47;;;;;;;14.23;11.33;;;11.70;55.20;;;;;;5046344;28;20438;-48
2021/10/29 06:03:14;;;;;;;12.57;10.70;;;11.60;55.70;;;;;;5039730;28;20204;-49
2021/10/29 06:05:39;;;;;;;14.30;10.50;;;11.50;56.00;;;;;;5050928;28;20443;-48
2021/10/29 06:08:05;;;;;;;12.40;10.63;;;11.40;56.10;;;;;;5051791;28;20431;-47
2021/10/29 06:10:31;;;;;;;11.80;10.20;;;11.30;56.70;;;;;;5053396;28;20201;-47
2021/10/29 06:12:57;;;;;;;15.20;10.43;;;11.20;56.40;;;;;;5043620;28;20208;-49
2021/10/29 06:15:23;;;;;;;10.33;8.90;;;10.70;57.60;;;;;;5041108;28;20427;-47
2021/10/29 06:17:49;;;;;;;12.47;9.57;;;10.60;58.20;;;;;;5042296;28;20188;-50
2021/10/29 06:20:17;;;;;;;12.80;11.50;;;10.70;58.50;;;;;;5044910;28;20496;-48
2021/10/29 06:22:48;;;;;;;12.53;9.93;;;10.60;58.10;;;;;;5042834;28;20871;-51
2021/10/29 06:25:17;;;;;;;14.00;11.53;;;10.30;58.90;;;;;;5034956;28;20480;-47
2021/10/29 06:30:28;;;;;;;11.57;9.13;;;10.10;60.90;;;;;;5038878;28;20486;-49
2021/10/29 06:32:54;;;;;;;13.10;10.67;;;10.80;59.70;;;;;;5037370;28;20459;-47
2021/10/29 06:35:20;;;;;;;11.83;9.60;;;11.00;58.70;;;;;;5047076;28;20435;-49
2021/10/29 06:37:46;;;;;;;34.37;18.83;;;11.40;58.00;;;;;;5037356;28;20428;-48
2021/10/29 06:40:14;;;;;;;21.67;14.47;;;11.50;57.30;;;;;;5041500;28;20184;-47
2021/10/29 06:42:41;;;;;;;14.67;10.00;;;11.50;57.30;;;;;;5040061;28;20209;-52
2021/10/29 06:45:20;;;;;;;10.97;9.30;;;11.60;57.70;;;;;;5038958;28;20478;-47
2021/10/29 06:59:16;;;;;;;11.40;10.20;;;12.30;56.60;;;;;;5011654;28;20457;-50
2021/10/29 07:04:40;;;;;;;15.83;9.53;;;12.40;55.80;;;;;;5037837;28;20561;-47
2021/10/29 07:40:10;;;;;;;9.83;8.83;;;14.20;53.80;;;;;;5037722;28;20445;-48
2021/10/29 07:42:51;;;;;;;9.17;8.27;;;14.30;54.10;;;;;;5042214;28;20495;-49
2021/10/29 07:45:17;;;;;;;10.23;9.23;;;14.50;53.80;;;;;;5038701;28;20439;-52
2021/10/29 07:47:43;;;;;;;11.87;9.10;;;14.40;53.40;;;;;;5050379;28;20538;-52
2021/10/29 07:50:12;;;;;;;10.60;9.50;;;14.60;53.80;;;;;;5040185;28;20509;-50
2021/10/29 07:52:38;;;;;;;10.17;9.17;;;14.80;53.50;;;;;;5052732;28;20439;-48
2021/10/29 07:55:09;;;;;;;9.70;8.80;;;15.10;53.10;;;;;;5041518;28;20432;-47
2021/10/29 07:57:36;;;;;;;10.57;9.47;;;15.30;53.00;;;;;;5040316;28;20448;-48
2021/10/29 08:00:04;;;;;;;10.70;9.70;;;15.00;52.20;;;;;;5045525;28;20431;-48
2021/10/29 08:02:31;;;;;;;10.70;9.67;;;13.80;53.90;;;;;;5048121;28;20962;-47
2021/10/29 08:04:56;;;;;;;11.80;10.57;;;13.60;56.80;;;;;;5038983;28;20496;-47
2021/10/29 08:07:23;;;;;;;11.00;9.83;;;13.80;56.40;;;;;;5037412;28;20582;-47
2021/10/29 08:09:49;;;;;;;9.20;8.40;;;14.10;56.00;;;;;;5040538;28;20200;-48
2021/10/29 08:12:16;;;;;;;10.30;9.30;;;14.30;56.10;;;;;;5045522;28;20949;-48
2021/10/29 08:14:44;;;;;;;11.77;10.63;;;14.30;55.60;;;;;;5045887;28;20473;-47
2021/10/29 08:17:10;;;;;;;10.73;9.63;;;14.60;55.10;;;;;;5046541;28;20447;-47
2021/10/29 08:19:36;;;;;;;10.47;9.50;;;14.70;54.40;;;;;;5048260;28;20533;-48
2021/10/29 08:22:04;;;;;;;9.03;8.10;;;14.70;54.30;;;;;;5044189;28;20431;-47
2021/10/29 08:24:30;;;;;;;8.97;8.07;;;14.70;54.00;;;;;;5039769;28;20505;-47
2021/10/29 08:26:57;;;;;;;9.10;8.20;;;14.80;54.10;;;;;;5044823;28;20579;-48
2021/10/29 08:29:24;;;;;;;9.67;8.40;;;15.00;53.70;;;;;;5041239;28;21333;-50
2021/10/29 08:31:51;;;;;;;9.33;8.30;;;15.00;53.60;;;;;;5050295;28;20458;-51
2021/10/29 08:34:18;;;;;;;8.50;7.57;;;15.00;53.50;;;;;;5049509;28;20621;-50
2021/10/29 08:36:45;;;;;;;9.03;8.13;;;15.20;53.10;;;;;;5044679;28;20443;-50
2021/10/29 08:39:11;;;;;;;8.70;7.90;;;15.40;53.20;;;;;;5050735;28;20439;-50
2021/10/29 08:41:39;;;;;;;8.63;7.70;;;15.50;53.00;;;;;;5070799;28;20507;-53
2021/10/29 08:44:06;;;;;;;9.53;8.63;;;15.20;53.50;;;;;;5044771;28;20435;-50
2021/10/29 08:46:32;;;;;;;13.67;9.67;;;15.30;53.50;;;;;;5043864;28;20498;-52
2021/10/29 08:48:59;;;;;;;10.07;8.30;;;15.50;53.40;;;;;;5050787;28;20488;-53
2021/10/29 08:51:26;;;;;;;9.20;8.30;;;15.70;53.00;;;;;;5051272;28;20801;-52
2021/10/29 08:53:54;;;;;;;10.20;7.77;;;15.80;52.70;;;;;;5040820;28;20431;-51
2021/10/29 08:56:20;;;;;;;9.93;8.93;;;15.90;52.40;;;;;;5047426;28;20451;-52
2021/10/29 08:59:02;;;;;;;9.80;8.90;;;16.00;51.90;;;;;;5048314;28;20436;-52
2021/10/29 09:01:27;;;;;;;9.37;8.53;;;16.30;51.80;;;;;;5037690;28;20196;-52
2021/10/29 09:04:00;;;;;;;10.60;9.60;;;16.40;51.70;;;;;;5043917;28;20440;-51
2021/10/29 09:06:47;;;;;;;9.67;8.67;;;16.40;51.40;;;;;;5039402;28;20606;-50
2021/10/29 09:16:13;;;;;;;9.60;8.47;;;16.70;51.50;;;;;;5042990;28;20471;-52
2021/10/29 09:34:15;;;;;;;9.43;8.43;;;18.30;48.80;;;;;;5044665;28;20796;-47
2021/10/29 09:36:52;;;;;;;9.60;8.80;;;18.50;48.70;;;;;;5048178;28;20441;-52
2021/10/29 09:39:27;;;;;;;10.43;9.40;;;18.80;48.20;;;;;;5044715;28;20550;-52
2021/10/29 09:42:08;;;;;;;11.73;10.00;;;19.00;48.40;;;;;;5039501;28;20517;-52
2021/10/29 09:44:45;;;;;;;9.87;8.97;;;19.20;48.20;;;;;;5048701;28;20480;-49
2021/10/29 09:47:14;;;;;;;10.33;9.20;;;19.40;47.50;;;;;;5046600;28;20555;-52
2021/10/29 09:49:52;;;;;;;10.97;9.87;;;19.40;46.70;;;;;;5038036;28;20856;-53
2021/10/29 09:57:24;;;;;;;11.20;10.10;;;19.60;47.00;;;;;;5043342;28;20798;-49
2021/10/29 09:59:54;;;;;;;11.93;10.83;;;19.60;47.10;;;;;;5047501;28;20501;-53
2021/10/29 10:02:21;;;;;;;11.50;10.37;;;19.80;47.20;;;;;;5048253;28;20485;-51
2021/10/29 10:04:56;;;;;;;11.60;9.33;;;19.90;47.10;;;;;;5044389;28;20431;-51
2021/10/29 10:07:27;;;;;;;11.97;10.87;;;20.10;46.70;;;;;;5047170;28;20491;-53
2021/10/29 10:09:57;;;;;;;12.17;10.90;;;20.20;46.40;;;;;;5040670;28;21004;-48
2021/10/29 10:12:26;;;;;;;11.83;10.83;;;20.20;46.30;;;;;;5050787;28;20463;-51
2021/10/29 10:14:54;;;;;;;11.40;10.40;;;20.40;46.20;;;;;;5049823;28;20435;-51
2021/10/29 10:17:21;;;;;;;12.33;11.23;;;20.40;46.20;;;;;;5039216;28;20996;-51
2021/10/29 10:19:49;;;;;;;11.10;10.00;;;20.40;46.10;;;;;;5044096;28;20470;-49
2021/10/29 10:22:20;;;;;;;12.77;10.30;;;20.40;45.80;;;;;;5038998;28;20859;-49
2021/10/29 10:24:55;;;;;;;11.20;10.10;;;20.50;45.70;;;;;;5038430;28;20529;-51
2021/10/29 10:27:50;;;;;;;11.63;10.23;;;20.60;45.40;;;;;;5038103;28;20525;-48
2021/10/29 10:30:36;;;;;;;7.50;6.77;;;20.60;45.80;;;;;;5046887;28;20419;-49
2021/10/29 10:40:16;;;;;;;9.20;7.50;;;20.60;46.00;;;;;;5042795;28;20800;-50
2021/10/29 10:44:59;;;;;;;9.87;8.87;;;21.70;44.00;;;;;;5050632;28;20537;-48
2021/10/29 10:46:56;;;;;;;12.63;10.10;;;21.90;44.00;;;;;;5037963;28;20933;-50
2021/10/29 10:49:50;;;;;;;9.57;8.57;;;21.90;43.80;;;;;;5046804;28;20497;-51
2021/10/29 10:52:22;;;;;;;8.80;7.87;;;21.90;43.80;;;;;;5045051;28;20446;-49
2021/10/29 10:54:56;;;;;;;9.63;8.73;;;22.00;44.00;;;;;;5034840;28;20444;-51
2021/10/29 11:10:22;;;;;;;10.60;9.60;;;22.60;42.90;;;;;;5042496;28;20439;-48
2021/10/29 11:12:48;;;;;;;11.10;9.77;;;22.60;42.90;;;;;;5048465;28;20800;-51
2021/10/29 11:15:18;;;;;;;10.83;9.30;;;22.70;42.60;;;;;;5041626;28;20455;-50
2021/10/29 11:17:56;;;;;;;8.87;8.10;;;22.70;42.90;;;;;;5053800;28;20613;-50
2021/10/29 11:20:47;;;;;;;10.67;8.63;;;22.80;43.40;;;;;;5045248;28;21058;-53
2021/10/29 11:23:26;;;;;;;9.33;8.07;;;23.10;42.30;;;;;;5039750;28;20447;-51
2021/10/29 11:26:01;;;;;;;9.20;8.17;;;23.30;42.90;;;;;;5045768;28;20925;-50
2021/10/29 11:28:33;;;;;;;10.93;8.67;;;23.30;42.00;;;;;;5048053;28;20449;-48
2021/10/29 11:30:59;;;;;;;10.03;9.03;;;23.50;41.90;;;;;;5050240;28;20439;-51
2021/10/29 11:33:26;;;;;;;9.60;8.80;;;23.70;41.20;;;;;;5047420;28;20438;-49
2021/10/29 11:36:03;;;;;;;11.87;10.67;;;23.70;41.10;;;;;;5042065;28;20495;-49
2021/10/29 11:38:31;;;;;;;14.73;10.87;;;23.70;40.80;;;;;;5040332;28;20455;-47
2021/10/29 11:40:57;;;;;;;11.30;10.17;;;23.70;40.80;;;;;;5047571;28;20447;-46
2021/10/29 11:43:28;;;;;;;12.70;11.40;;;23.50;40.70;;;;;;5055186;28;20492;-49
2021/10/29 11:45:56;;;;;;;10.40;9.50;;;23.40;41.50;;;;;;5061953;28;20811;-53
2021/10/29 11:48:22;;;;;;;11.47;10.47;;;23.30;41.50;;;;;;5051085;28;21257;-46
2021/10/29 11:51:12;;;;;;;11.13;10.10;;;23.30;41.60;;;;;;5053963;28;20475;-51
2021/10/29 11:53:46;;;;;;;11.60;10.47;;;23.40;41.60;;;;;;5048818;28;20281;-47
2021/10/29 11:56:24;;;;;;;11.30;9.90;;;23.40;41.30;;;;;;5049433;28;20431;-47
2021/10/29 12:01:49;;;;;;;11.13;9.43;;;23.30;41.50;;;;;;5048375;28;20432;-47
2021/10/29 12:09:40;;;;;;;10.97;9.97;;;23.30;41.40;;;;;;5044871;28;20482;-48
2021/10/29 12:12:13;;;;;;;13.83;10.03;;;23.30;41.40;;;;;;5051941;28;20837;-48
2021/10/29 12:14:41;;;;;;;11.63;10.43;;;23.30;41.20;;;;;;5049294;28;20435;-50
2021/10/29 12:17:20;;;;;;;10.80;9.77;;;23.40;41.80;;;;;;5047352;28;20447;-51
2021/10/29 12:19:49;;;;;;;10.97;9.87;;;23.40;41.60;;;;;;5064207;28;20476;-51
2021/10/29 12:24:59;;;;;;;10.30;9.30;;;23.60;41.30;;;;;;5048518;28;20568;-52
2021/10/29 12:27:35;;;;;;;10.40;9.30;;;23.70;40.80;;;;;;5051041;28;20493;-52
2021/10/29 13:03:09;;;;;;;11.00;9.40;;;24.00;39.40;;;;;;5047909;28;20904;-51
2021/10/29 13:05:35;;;;;;;9.83;8.93;;;24.00;39.40;;;;;;5047940;28;20481;-47
2021/10/29 13:08:19;;;;;;;10.17;9.17;;;23.70;39.50;;;;;;5052510;28;20486;-51
2021/10/29 13:10:44;;;;;;;10.27;9.17;;;23.40;39.90;;;;;;5038959;28;20793;-49
2021/10/29 13:13:19;;;;;;;9.53;8.63;;;23.40;40.40;;;;;;5043130;28;20444;-50
2021/10/29 13:15:46;;;;;;;11.20;9.47;;;23.60;40.40;;;;;;5050436;28;20208;-46
2021/10/29 13:18:17;;;;;;;9.60;8.60;;;23.40;40.10;;;;;;5035831;28;20474;-50
2021/10/29 13:21:04;;;;;;;8.77;7.87;;;23.30;40.20;;;;;;5042996;28;20893;-46
2021/10/29 13:26:29;;;;;;;8.67;7.83;;;24.00;40.00;;;;;;5052159;28;20465;-47
2021/10/29 13:50:39;;;;;;;7.00;6.30;;;24.00;38.50;;;;;;5044087;28;20438;-47
2021/10/29 13:53:27;;;;;;;6.70;6.00;;;24.00;38.40;;;;;;5044197;28;20447;-47
2021/10/29 14:01:04;;;;;;;6.30;5.30;;;24.30;38.00;;;;;;5047266;28;20192;-49
2021/10/29 14:28:17;;;;;;;4.50;3.83;;;23.50;35.40;;;;;;5045943;28;20494;-46
2021/10/29 14:30:54;;;;;;;3.90;3.53;;;23.50;35.40;;;;;;5048867;28;20443;-46
2021/10/29 14:33:25;;;;;;;4.03;3.47;;;23.60;34.90;;;;;;5042426;28;20437;-50
2021/10/29 14:35:54;;;;;;;4.83;3.50;;;23.80;34.90;;;;;;5046109;28;20443;-48
2021/10/29 14:38:35;;;;;;;4.63;3.00;;;24.10;35.90;;;;;;5040885;28;20435;-48
2021/10/29 14:41:17;;;;;;;4.93;3.23;;;24.10;34.40;;;;;;5030474;28;20444;-47
2021/10/29 14:44:29;;;;;;;3.73;3.43;;;24.10;34.50;;;;;;5048418;28;20577;-47
2021/10/29 14:46:48;;;;;;;3.97;2.80;;;24.10;34.60;;;;;;5039059;28;21279;-51
2021/10/29 14:49:29;;;;;;;4.00;3.53;;;24.00;34.60;;;;;;5037073;28;20455;-48
2021/10/29 15:00:21;;;;;;;3.87;3.50;;;24.20;35.10;;;;;;5039525;28;20438;-49
2021/10/29 15:17:24;;;;;;;6.43;4.80;;;24.80;34.80;;;;;;5047324;28;20481;-48
2021/10/29 15:28:33;;;;;;;5.23;4.73;;;24.80;35.60;;;;;;5039990;28;21001;-48
2021/10/29 15:31:12;;;;;;;5.00;4.50;;;24.80;35.70;;;;;;5044121;28;21165;-48
2021/10/29 15:42:24;;;;;;;6.03;4.90;;;24.30;36.20;;;;;;5044181;28;20446;-49
2021/10/29 15:44:52;;;;;;;7.00;5.83;;;24.10;36.50;;;;;;5043422;28;20439;-53
2021/10/29 15:47:32;;;;;;;5.30;4.73;;;24.10;36.50;;;;;;5031534;28;20483;-53
2021/10/29 15:50:05;;;;;;;7.90;4.30;;;24.00;36.80;;;;;;5042462;28;20515;-52
2021/10/29 15:52:31;;;;;;;6.07;5.13;;;23.90;36.70;;;;;;5037405;28;20472;-50
2021/10/29 15:55:02;;;;;;;5.37;4.87;;;23.80;37.00;;;;;;5042597;28;20545;-49
2021/10/29 15:57:31;;;;;;;5.83;5.20;;;23.70;37.20;;;;;;5042661;28;20220;-51
2021/10/29 16:00:24;;;;;;;10.40;7.70;;;23.60;37.40;;;;;;5043212;28;20440;-50
2021/10/29 16:02:55;;;;;;;5.93;5.23;;;23.50;37.80;;;;;;5037726;28;20443;-50
2021/10/29 16:19:01;;;;;;;10.37;7.90;;;22.60;39.90;;;;;;5047041;28;20946;-51
2021/10/29 16:21:27;;;;;;;10.20;6.77;;;22.50;40.30;;;;;;5052997;28;20485;-52
2021/10/29 16:23:53;;;;;;;7.17;6.40;;;22.40;40.60;;;;;;5048843;28;20192;-51
2021/10/29 16:26:21;;;;;;;10.90;7.20;;;22.20;41.10;;;;;;5038915;28;20232;-48
2021/10/29 16:28:49;;;;;;;12.60;8.27;;;21.90;41.50;;;;;;5041115;28;20645;-50
2021/10/29 16:31:14;;;;;;;9.20;8.10;;;21.80;41.80;;;;;;5033123;28;20440;-50
2021/10/29 16:33:40;;;;;;;9.13;8.13;;;21.70;41.90;;;;;;5048608;28;20442;-51
2021/10/29 16:36:05;;;;;;;9.50;8.20;;;21.60;41.90;;;;;;5036029;28;20190;-50
2021/10/29 16:38:32;;;;;;;8.47;7.50;;;21.50;42.10;;;;;;5052468;28;20201;-48
2021/10/29 16:40:59;;;;;;;8.93;6.50;;;21.40;42.50;;;;;;5048184;28;20196;-51
2021/10/29 16:43:25;;;;;;;8.70;6.20;;;21.30;42.70;;;;;;5055742;28;20957;-51
2021/10/29 16:45:53;;;;;;;8.60;7.43;;;21.30;42.70;;;;;;5051345;28;20813;-50
2021/10/29 16:48:22;;;;;;;8.53;7.30;;;21.20;43.10;;;;;;5043987;28;20541;-51
2021/10/29 16:50:48;;;;;;;7.17;5.80;;;21.00;43.50;;;;;;5044731;28;20450;-52
2021/10/29 16:53:15;;;;;;;9.00;6.37;;;20.90;44.10;;;;;;5047650;28;20526;-50
2021/10/29 16:55:42;;;;;;;7.43;6.70;;;20.70;44.50;;;;;;5050952;28;20442;-50
2021/10/29 16:58:12;;;;;;;7.97;6.03;;;20.60;44.80;;;;;;5058043;28;20437;-50